Eastham, MA (02642)

6:35 PM EDT on April 25, 2015 (GMT -0400)
Muddy Pond | | Change Station
CLOSE
Current Station
Personal Weather Station
Location: Eastham, MA
Elevation: 16 ft
Nearby Weather Stations

Elev 16 ft 41.83 °N, 69.98 °W | Updated 1 minute ago

Overcast
Overcast
48.2 °F
Feels Like 48 °F
N
0.0
Wind Variable Wind from South
Gusts 0.0 mph

Today
High -- | Low -- °F
--% Chance of Precip.
Yesterday
High -- | Low -- °F
Precip. -- in
5:45 AM 7:31 PM
Waxing Crescent, 49% visible
Pressure 29.71 in
Visibility 10.0 miles
Clouds Overcast 8000 ft
Windchill 48 °F
Dew Point 35 °F
Humidity 61%
Rainfall 0.00 in
Snow Depth Not available.
UV 0 out of 12
Pollen 10.80 out of 12
Air Quality Not available.
Flu Activity Widespread
METAR KCQX 252152Z AUTO 23007G15KT 10SM OVC080 08/02 A2971 RMK AO2 SLP061 T00780017

More Conditions Fewer Conditions

Pressure 29.71 in
Visibility 10.0 miles
Clouds Overcast 8000 ft
Windchill 48 °F
Dew Point 35 °F
Humidity 61%
Rainfall 0.00 in
Snow Depth Not available.
UV 0 out of 12
Pollen 10.80 out of 12
Air Quality Not available.
Flu Activity Widespread
METAR KCQX 252152Z AUTO 23007G15KT 10SM OVC080 08/02 A2971 RMK AO2 SLP061 T00780017

More Conditions Fewer Conditions

10-Day Weather Forecast

Almanac

Astronomy

Apr. 25, 2015 Rise Set
Actual Time
Civil Twilight
Nautical Twilight
Astronomical Twilight
Moon
Length of Visible Light
Length of Day
Tomorrow will be .
, % of the Moon is Illuminated

Today's Extremes

State Highs State Lows

Community

WunderPhotos

Upload Photos

1,816,836 photos uploaded!

WunderBlogs® & News

Nearby

Air Quality

  Air Quality AQ Index Pollutant
Not available.

Snow Depth

Station Depth Elevation

Earthquake Activity

City Distance Mag. Time & Date
Minimum magnitude displayed is 2.5.

Coastal Water Temperatures

Place Temperature

Stations

Nearby Weather Stations

Station Location Temp. Windchill Dew Point Humidity Wind Precip. Elev Updated Type